Time;durP1;ratioP1;P1;durP2;ratioP2;P2;SDS_P1;SDS_P2;PMS_P1;PMS_P2;Temp;Humidity;BMP_temperature;BMP_pressure;BME280_temperature;BME280_humidity;BME280_pressure;Samples;Min_cycle;Max_cycle;Signal;HPM_P1;HPM_P2
2022/04/29 00:01:40;;;;;;;1.37;0.70;;;9.70;99.90;;;;;;4250546;27;20039;-54
2022/04/29 00:03:42;;;;;;;3.60;0.90;;;9.70;99.90;;;;;;4258907;27;20114;-54
2022/04/29 00:05:46;;;;;;;1.60;1.17;;;9.60;99.90;;;;;;4261206;27;20054;-54
2022/04/29 00:07:47;;;;;;;3.07;1.03;;;9.60;99.90;;;;;;4260698;27;20031;-62
2022/04/29 00:09:48;;;;;;;1.53;1.00;;;9.70;99.90;;;;;;4260492;27;20039;-51
2022/04/29 00:11:51;;;;;;;1.10;1.00;;;9.70;99.90;;;;;;4259930;27;20034;-50
2022/04/29 00:13:52;;;;;;;3.33;1.00;;;9.70;99.90;;;;;;4245723;27;20112;-58
2022/04/29 00:15:53;;;;;;;2.00;0.93;;;9.70;99.90;;;;;;4259571;27;20056;-54
2022/04/29 00:17:55;;;;;;;1.77;1.23;;;9.70;99.90;;;;;;4245143;27;20072;-62
2022/04/29 00:19:56;;;;;;;2.10;0.93;;;9.70;99.90;;;;;;4263668;27;20046;-55
2022/04/29 00:21:57;;;;;;;1.13;0.90;;;9.70;99.90;;;;;;4251732;27;20132;-54
2022/04/29 00:23:58;;;;;;;2.20;0.77;;;9.70;99.90;;;;;;4258008;27;20375;-53
2022/04/29 00:25:59;;;;;;;1.20;0.80;;;9.70;99.90;;;;;;4270767;27;20042;-52
2022/04/29 00:28:01;;;;;;;1.70;0.90;;;9.70;99.90;;;;;;4273159;27;20046;-54
2022/04/29 00:30:03;;;;;;;2.33;0.93;;;9.70;99.90;;;;;;4273754;27;20079;-58
2022/04/29 00:32:05;;;;;;;1.27;0.90;;;9.70;99.90;;;;;;4275249;27;20087;-63
2022/04/29 00:34:06;;;;;;;3.33;0.80;;;9.70;99.90;;;;;;4260896;27;20046;-55
2022/04/29 00:36:08;;;;;;;1.37;0.97;;;9.70;99.90;;;;;;4244616;27;20022;-53
2022/04/29 00:38:15;;;;;;;1.47;0.70;;;9.70;99.90;;;;;;4243476;27;20437;-58
2022/04/29 00:40:18;;;;;;;1.10;0.87;;;9.70;99.90;;;;;;4254011;27;20396;-58
2022/04/29 00:42:24;;;;;;;0.90;0.67;;;9.70;99.90;;;;;;4222038;28;20599;-56
2022/04/29 00:44:25;;;;;;;1.47;1.00;;;9.70;99.90;;;;;;4241978;27;20046;-68
2022/04/29 00:46:26;;;;;;;0.83;0.80;;;9.70;99.90;;;;;;4240085;27;20031;-58
2022/04/29 00:48:28;;;;;;;1.27;0.90;;;9.70;99.90;;;;;;4242115;27;20065;-53
2022/04/29 00:50:30;;;;;;;1.23;0.80;;;9.70;99.90;;;;;;4247119;27;20087;-55
2022/04/29 00:52:32;;;;;;;1.00;0.90;;;9.70;99.90;;;;;;4258835;27;20043;-72
2022/04/29 00:54:37;;;;;;;1.47;0.83;;;9.70;99.90;;;;;;4255821;27;20034;-67
2022/04/29 00:56:41;;;;;;;1.07;0.97;;;9.60;99.90;;;;;;4258544;27;20030;-58
2022/04/29 00:58:46;;;;;;;1.50;1.10;;;9.60;99.90;;;;;;4250829;27;20039;-48
2022/04/29 01:00:47;;;;;;;2.77;1.00;;;9.60;99.90;;;;;;4242518;27;20091;-56
2022/04/29 01:02:52;;;;;;;2.53;1.53;;;9.60;99.90;;;;;;4257917;27;20047;-70
2022/04/29 01:05:09;;;;;;;2.30;1.20;;;9.60;99.90;;;;;;4242723;27;20095;-62
2022/04/29 01:07:10;;;;;;;2.47;1.00;;;9.60;99.90;;;;;;4241474;27;20555;-57
2022/04/29 01:09:11;;;;;;;1.13;0.90;;;9.60;99.90;;;;;;4248015;27;20052;-55
2022/04/29 01:11:12;;;;;;;2.10;1.00;;;9.60;99.90;;;;;;4239890;27;21006;-51
2022/04/29 01:13:16;;;;;;;1.00;0.70;;;9.60;99.90;;;;;;4256462;27;20440;-57
2022/04/29 01:15:18;;;;;;;2.03;1.00;;;9.60;99.90;;;;;;4257605;27;20042;-53
2022/04/29 01:17:19;;;;;;;2.80;1.00;;;9.60;99.90;;;;;;4253287;27;20519;-53
2022/04/29 01:19:20;;;;;;;1.37;0.70;;;9.60;99.90;;;;;;4258721;27;20063;-53
2022/04/29 01:21:22;;;;;;;1.10;1.00;;;9.60;99.90;;;;;;4256367;27;20095;-51
2022/04/29 01:23:23;;;;;;;0.93;0.90;;;9.60;99.90;;;;;;4258265;27;20157;-56
2022/04/29 01:25:24;;;;;;;1.87;1.20;;;9.60;99.90;;;;;;4257815;27;20420;-51
2022/04/29 01:27:26;;;;;;;1.10;0.90;;;9.70;99.90;;;;;;4258228;27;20087;-59
2022/04/29 01:29:28;;;;;;;1.63;1.00;;;9.60;99.90;;;;;;4254943;27;20479;-57
2022/04/29 01:31:30;;;;;;;2.60;1.00;;;9.60;99.90;;;;;;4257907;27;20107;-64
2022/04/29 01:33:34;;;;;;;1.57;1.20;;;9.60;99.90;;;;;;4247409;27;20035;-56
2022/04/29 01:35:35;;;;;;;1.87;0.93;;;9.60;99.90;;;;;;4258675;27;20038;-53
2022/04/29 01:37:37;;;;;;;2.97;1.43;;;9.60;99.90;;;;;;4274707;27;20038;-65
2022/04/29 01:39:40;;;;;;;0.80;0.80;;;9.60;99.90;;;;;;4273977;27;20034;-57
2022/04/29 01:41:41;;;;;;;1.23;0.90;;;9.60;99.90;;;;;;4271198;27;20046;-54
2022/04/29 01:43:42;;;;;;;1.00;0.90;;;9.50;99.90;;;;;;4270102;27;20141;-60
2022/04/29 01:45:44;;;;;;;1.10;0.90;;;9.50;99.90;;;;;;4258146;27;20042;-61
2022/04/29 01:47:45;;;;;;;1.53;1.00;;;9.50;99.90;;;;;;4257912;27;20026;-50
2022/04/29 01:49:46;;;;;;;2.00;0.90;;;9.50;99.90;;;;;;4258396;27;20035;-68
2022/04/29 01:51:48;;;;;;;4.10;1.10;;;9.50;99.90;;;;;;4257283;27;20060;-50
2022/04/29 01:53:53;;;;;;;1.10;0.80;;;9.50;99.90;;;;;;4258189;27;20043;-50
2022/04/29 01:55:56;;;;;;;2.33;1.10;;;9.50;99.90;;;;;;4257588;27;20058;-67
2022/04/29 01:57:57;;;;;;;1.47;0.83;;;9.50;99.90;;;;;;4268929;27;20728;-52
2022/04/29 01:59:59;;;;;;;1.03;0.90;;;9.50;99.90;;;;;;4274263;27;20071;-59
2022/04/29 02:02:03;;;;;;;1.47;0.80;;;9.40;99.90;;;;;;4257161;27;20087;-61
2022/04/29 02:04:04;;;;;;;3.73;1.43;;;9.40;99.90;;;;;;4256288;27;20095;-55
2022/04/29 02:06:05;;;;;;;3.03;1.83;;;9.40;99.90;;;;;;4257812;27;20038;-55
2022/04/29 02:08:07;;;;;;;4.80;1.20;;;9.40;99.90;;;;;;4256316;27;20042;-62
2022/04/29 02:10:08;;;;;;;3.70;1.10;;;9.40;99.90;;;;;;4258360;27;20051;-53
2022/04/29 02:12:11;;;;;;;1.30;0.93;;;9.40;99.90;;;;;;4257803;27;20447;-57
2022/04/29 02:14:13;;;;;;;0.93;0.83;;;9.30;99.90;;;;;;4258680;27;20715;-54
2022/04/29 02:16:14;;;;;;;0.93;0.73;;;9.30;99.90;;;;;;4257455;27;20022;-52
2022/04/29 02:18:16;;;;;;;1.50;1.00;;;9.20;99.90;;;;;;4257077;27;20030;-65
2022/04/29 02:20:17;;;;;;;1.23;0.90;;;9.20;99.90;;;;;;4270586;27;20539;-55
2022/04/29 02:22:18;;;;;;;1.63;1.10;;;9.20;99.90;;;;;;4273077;27;20107;-54
2022/04/29 02:24:19;;;;;;;1.30;1.03;;;9.10;99.90;;;;;;4273628;27;20026;-69
2022/04/29 02:26:21;;;;;;;1.47;0.90;;;9.10;99.90;;;;;;4274283;27;20030;-53
2022/04/29 02:28:22;;;;;;;1.20;1.00;;;9.10;99.90;;;;;;4275355;27;20047;-54
2022/04/29 02:30:23;;;;;;;1.97;1.20;;;9.10;99.90;;;;;;4260270;27;20031;-55
2022/04/29 02:32:25;;;;;;;2.07;1.27;;;9.00;99.90;;;;;;4257650;27;20088;-53
2022/04/29 02:34:26;;;;;;;1.30;1.10;;;9.00;99.90;;;;;;4257076;27;20046;-68
2022/04/29 02:36:28;;;;;;;2.23;1.10;;;9.00;99.90;;;;;;4258112;27;20031;-53
2022/04/29 02:38:29;;;;;;;2.57;1.47;;;8.90;99.90;;;;;;4261927;27;20030;-49
2022/04/29 02:40:30;;;;;;;2.17;1.40;;;8.90;99.90;;;;;;4274324;27;20038;-69
2022/04/29 02:42:31;;;;;;;2.60;1.23;;;8.90;99.90;;;;;;4273663;27;20046;-50
2022/04/29 02:44:32;;;;;;;1.80;1.30;;;8.80;99.90;;;;;;4273766;27;20041;-49
2022/04/29 02:46:33;;;;;;;3.67;1.30;;;8.80;99.90;;;;;;4273997;27;20415;-69
2022/04/29 02:48:35;;;;;;;2.33;1.27;;;8.80;99.90;;;;;;4256917;27;20031;-71
2022/04/29 02:50:36;;;;;;;1.60;1.47;;;8.70;99.90;;;;;;4238855;27;20064;-53
2022/04/29 02:52:37;;;;;;;3.40;2.03;;;8.70;99.90;;;;;;4261229;27;20562;-53
2022/04/29 02:54:40;;;;;;;3.73;1.80;;;8.70;99.90;;;;;;4257777;27;20064;-66
2022/04/29 02:56:41;;;;;;;3.43;1.70;;;8.70;99.90;;;;;;4256358;27;20027;-54
2022/04/29 02:58:42;;;;;;;3.20;2.07;;;8.70;99.90;;;;;;4250109;27;20054;-64
2022/04/29 03:00:43;;;;;;;6.40;1.77;;;8.60;99.90;;;;;;4273586;27;20066;-52
2022/04/29 03:02:45;;;;;;;5.90;1.77;;;8.70;99.90;;;;;;4272003;27;20058;-53
2022/04/29 03:04:46;;;;;;;2.67;1.30;;;8.60;99.90;;;;;;4272809;27;20087;-50
2022/04/29 03:06:47;;;;;;;3.03;1.37;;;8.60;99.90;;;;;;4273395;27;20759;-51
2022/04/29 03:08:48;;;;;;;2.30;1.63;;;8.70;99.90;;;;;;4257537;27;20068;-58
2022/04/29 03:10:49;;;;;;;2.47;1.57;;;8.70;99.90;;;;;;4258594;27;20026;-55
2022/04/29 03:12:51;;;;;;;2.63;1.60;;;8.70;99.90;;;;;;4256086;27;20083;-52
2022/04/29 03:14:52;;;;;;;2.23;1.57;;;8.70;99.90;;;;;;4259310;27;20047;-54
2022/04/29 03:16:53;;;;;;;6.03;1.97;;;8.70;99.90;;;;;;4259502;27;20440;-54
2022/04/29 03:18:54;;;;;;;3.30;1.67;;;8.70;99.90;;;;;;4259377;27;20030;-69
2022/04/29 03:20:58;;;;;;;2.63;1.77;;;8.70;99.90;;;;;;4262379;27;20035;-69
2022/04/29 03:22:59;;;;;;;5.30;1.57;;;8.70;99.90;;;;;;4274473;27;20221;-54
2022/04/29 03:25:00;;;;;;;3.07;1.90;;;8.70;99.90;;;;;;4277773;27;20038;-53
2022/04/29 03:27:02;;;;;;;2.73;1.83;;;8.70;99.90;;;;;;4274342;27;20026;-65
2022/04/29 03:29:03;;;;;;;2.70;1.70;;;8.70;99.90;;;;;;4277415;27;20042;-57
2022/04/29 03:31:04;;;;;;;2.80;2.03;;;8.70;99.90;;;;;;4272538;27;20042;-51
2022/04/29 03:33:06;;;;;;;3.70;2.10;;;8.70;99.90;;;;;;4276996;27;20094;-51
2022/04/29 03:35:08;;;;;;;3.67;1.80;;;8.70;99.90;;;;;;4275113;27;20102;-62
2022/04/29 03:37:09;;;;;;;4.80;1.90;;;8.70;99.90;;;;;;4264391;27;20055;-57
2022/04/29 03:39:10;;;;;;;5.23;1.90;;;8.80;99.90;;;;;;4256998;27;20046;-71
2022/04/29 03:41:12;;;;;;;4.53;1.60;;;8.80;99.90;;;;;;4273542;27;20106;-54
2022/04/29 03:43:13;;;;;;;5.60;1.67;;;8.90;99.90;;;;;;4272498;27;20916;-56
2022/04/29 03:45:15;;;;;;;2.73;1.33;;;9.10;99.90;;;;;;4270843;27;20046;-54
2022/04/29 03:47:16;;;;;;;4.30;1.40;;;9.40;99.90;;;;;;4262893;27;20031;-65
2022/04/29 03:49:36;;;;;;;4.83;1.37;;;9.40;99.90;;;;;;4268696;27;20481;-51
2022/04/29 03:51:37;;;;;;;4.68;2.17;;;9.50;99.90;;;;;;4242043;27;20092;-54
2022/04/29 03:53:39;;;;;;;2.20;1.30;;;9.60;99.90;;;;;;4242351;27;20083;-51
2022/04/29 03:55:40;;;;;;;2.37;1.27;;;9.60;99.90;;;;;;4249586;27;20071;-59
2022/04/29 03:57:42;;;;;;;4.00;1.17;;;9.60;99.90;;;;;;4265106;27;20482;-53
2022/04/29 03:59:43;;;;;;;3.20;1.20;;;9.60;99.90;;;;;;4259584;27;20030;-69
2022/04/29 04:01:45;;;;;;;1.77;0.97;;;9.60;99.90;;;;;;4258655;27;20035;-55
2022/04/29 04:03:46;;;;;;;1.03;0.83;;;9.60;99.90;;;;;;4258823;27;20107;-52
2022/04/29 04:08:07;;;;;;;4.37;1.37;;;9.50;99.90;;;;;;4259794;27;20043;-54
2022/04/29 04:10:08;;;;;;;2.90;1.63;;;9.60;99.90;;;;;;4258494;27;20450;-53
2022/04/29 04:12:10;;;;;;;4.50;2.00;;;9.60;99.90;;;;;;4260666;27;20447;-55
2022/04/29 04:14:11;;;;;;;4.00;2.60;;;9.60;99.90;;;;;;4257935;27;20839;-53
2022/04/29 04:16:12;;;;;;;4.90;2.77;;;9.70;99.90;;;;;;4259397;27;20087;-54
2022/04/29 04:18:14;;;;;;;4.43;2.70;;;9.70;99.90;;;;;;4258115;27;20035;-54
2022/04/29 04:20:16;;;;;;;8.07;2.77;;;9.70;99.90;;;;;;4259256;27;20793;-54
2022/04/29 04:22:17;;;;;;;5.50;2.60;;;9.70;99.90;;;;;;4259134;27;20554;-54
2022/04/29 04:24:18;;;;;;;4.63;1.77;;;9.70;99.90;;;;;;4258954;27;20035;-53
2022/04/29 04:26:20;;;;;;;6.20;2.07;;;9.70;99.90;;;;;;4257986;27;20069;-52
2022/04/29 04:28:21;;;;;;;3.23;2.73;;;9.70;99.90;;;;;;4272898;27;20049;-57
2022/04/29 04:30:22;;;;;;;3.60;2.07;;;9.70;99.90;;;;;;4256226;27;20035;-53
2022/04/29 04:32:23;;;;;;;3.30;1.70;;;9.80;99.90;;;;;;4249735;27;20035;-54
2022/04/29 04:36:44;;;;;;;2.08;1.88;;;9.80;99.90;;;;;;4253993;27;20030;-68
2022/04/29 04:38:47;;;;;;;9.87;2.33;;;9.90;99.90;;;;;;4268375;27;20038;-67
2022/04/29 04:40:49;;;;;;;4.80;2.43;;;9.90;99.90;;;;;;4261089;27;20078;-55
2022/04/29 04:42:50;;;;;;;3.47;1.83;;;10.00;99.90;;;;;;4260023;27;20051;-56
2022/04/29 04:44:52;;;;;;;6.60;2.37;;;10.10;99.90;;;;;;4264305;27;20063;-58
2022/04/29 04:46:54;;;;;;;3.97;2.07;;;10.10;99.90;;;;;;4276415;27;20038;-68
2022/04/29 04:48:55;;;;;;;2.87;2.17;;;10.20;99.90;;;;;;4274427;27;20046;-56
2022/04/29 04:51:01;;;;;;;4.77;1.80;;;10.30;99.90;;;;;;4275176;27;20050;-51
2022/04/29 04:53:02;;;;;;;5.30;2.73;;;10.30;99.90;;;;;;4269359;27;20099;-54
2022/04/29 04:55:07;;;;;;;5.87;2.00;;;10.40;99.90;;;;;;4274098;27;20083;-52
2022/04/29 04:57:08;;;;;;;3.03;2.13;;;10.50;99.90;;;;;;4273364;27;20026;-61
2022/04/29 04:59:09;;;;;;;3.87;1.87;;;10.70;99.90;;;;;;4275864;27;20047;-59
2022/04/29 05:01:10;;;;;;;4.83;2.27;;;10.90;99.90;;;;;;4267587;27;20042;-52
2022/04/29 05:03:11;;;;;;;4.87;1.80;;;11.00;99.90;;;;;;4258028;27;20535;-58
2022/04/29 05:05:13;;;;;;;3.07;1.70;;;11.00;99.90;;;;;;4258846;27;20787;-53
2022/04/29 05:07:14;;;;;;;2.50;1.77;;;11.20;99.90;;;;;;4264398;27;20092;-55
2022/04/29 05:09:15;;;;;;;3.13;1.20;;;11.30;99.90;;;;;;4267543;27;20438;-57
2022/04/29 05:11:16;;;;;;;2.03;1.40;;;11.40;99.90;;;;;;4256591;27;20043;-56
2022/04/29 05:13:17;;;;;;;5.17;1.90;;;11.70;99.90;;;;;;4257612;27;20034;-55
2022/04/29 05:15:18;;;;;;;4.37;2.17;;;12.10;99.90;;;;;;4256643;27;20026;-56
2022/04/29 05:17:19;;;;;;;5.40;2.17;;;12.60;99.90;;;;;;4258395;27;20349;-69
2022/04/29 05:19:21;;;;;;;7.83;2.30;;;13.30;99.90;;;;;;4256362;27;20089;-54
2022/04/29 05:21:22;;;;;;;3.33;2.00;;;13.70;99.90;;;;;;4257711;27;20034;-53
2022/04/29 05:23:23;;;;;;;2.47;1.57;;;14.00;99.90;;;;;;4256642;27;20046;-70
2022/04/29 05:25:24;;;;;;;5.00;1.40;;;14.20;99.90;;;;;;4258643;27;20034;-70
2022/04/29 05:27:25;;;;;;;3.30;1.67;;;14.30;99.90;;;;;;4257263;27;20030;-55
2022/04/29 05:29:27;;;;;;;4.33;1.67;;;14.20;99.90;;;;;;4258149;27;20412;-57
2022/04/29 05:31:28;;;;;;;5.70;1.50;;;14.60;99.90;;;;;;4256284;27;20030;-57
2022/04/29 05:33:31;;;;;;;4.63;1.70;;;15.10;99.90;;;;;;4257893;27;20030;-54
2022/04/29 05:35:34;;;;;;;2.03;1.57;;;15.90;99.90;;;;;;4257392;27;20039;-56
2022/04/29 05:37:36;;;;;;;3.37;1.60;;;16.50;99.90;;;;;;4256594;27;20100;-71
2022/04/29 05:42:15;;;;;;;2.38;1.10;;;18.00;99.90;;;;;;4257434;27;20030;-54
2022/04/29 05:44:16;;;;;;;2.55;1.50;;;17.90;99.90;;;;;;4256199;27;20047;-60
2022/04/29 05:46:17;;;;;;;3.38;1.70;;;17.50;99.90;;;;;;4257313;27;20079;-57
2022/04/29 05:48:19;;;;;;;3.75;1.02;;;17.30;99.90;;;;;;4257049;27;20034;-55
2022/04/29 05:50:20;;;;;;;4.20;1.70;;;17.10;99.90;;;;;;4256662;27;20039;-56
2022/04/29 05:52:21;;;;;;;4.70;1.00;;;16.80;99.90;;;;;;4257284;27;20035;-58
2022/04/29 05:54:22;;;;;;;1.63;1.10;;;16.40;99.90;;;;;;4256188;27;20050;-52
2022/04/29 05:56:24;;;;;;;1.33;1.10;;;16.00;99.90;;;;;;4258085;27;20034;-58
2022/04/29 05:58:26;;;;;;;1.65;1.10;;;15.50;99.90;;;;;;4256640;27;20777;-55
2022/04/29 06:00:27;;;;;;;3.88;1.02;;;15.30;99.90;;;;;;4257468;27;20111;-55
2022/04/29 06:02:28;;;;;;;2.58;0.95;;;15.20;99.90;;;;;;4256584;27;20056;-58
2022/04/29 06:04:29;;;;;;;2.25;1.73;;;14.90;99.90;;;;;;4257134;27;20047;-56
2022/04/29 06:06:31;;;;;;;4.07;1.15;;;14.60;99.90;;;;;;4256184;27;20047;-67
2022/04/29 06:08:32;;;;;;;3.33;1.00;;;14.60;99.90;;;;;;4257515;27;20103;-55
2022/04/29 06:10:34;;;;;;;3.92;1.27;;;14.50;99.90;;;;;;4255597;27;20487;-53
2022/04/29 06:12:41;;;;;;;2.10;1.10;;;14.30;99.90;;;;;;4257360;27;20047;-57
2022/04/29 06:14:45;;;;;;;5.55;1.08;;;14.30;99.90;;;;;;4256472;27;20047;-57
2022/04/29 06:16:46;;;;;;;4.53;2.08;;;14.20;99.90;;;;;;4256509;27;20043;-54
2022/04/29 06:18:47;;;;;;;19.27;6.97;;;14.10;99.90;;;;;;4256552;27;20100;-52
2022/04/29 06:20:49;;;;;;;3.72;1.70;;;14.10;99.90;;;;;;4256927;27;20031;-59
2022/04/29 06:22:50;;;;;;;8.00;1.50;;;13.80;99.90;;;;;;4256759;27;20084;-53
2022/04/29 06:24:51;;;;;;;6.47;1.30;;;13.80;99.90;;;;;;4256001;27;20490;-55
2022/04/29 06:26:52;;;;;;;2.30;1.00;;;13.90;99.90;;;;;;4256786;27;20851;-56
2022/04/29 06:28:53;;;;;;;1.23;0.83;;;13.90;99.90;;;;;;4255641;27;20022;-55
2022/04/29 06:30:54;;;;;;;0.97;0.77;;;14.00;99.90;;;;;;4257423;27;20424;-61
2022/04/29 06:32:55;;;;;;;1.87;1.00;;;14.00;99.90;;;;;;4255496;27;20038;-62
2022/04/29 06:34:56;;;;;;;1.43;0.90;;;14.00;99.90;;;;;;4257341;27;20453;-51
2022/04/29 06:36:58;;;;;;;4.70;1.40;;;13.90;99.90;;;;;;4256565;27;20035;-60
2022/04/29 06:38:59;;;;;;;1.53;1.10;;;13.80;99.90;;;;;;4257913;27;20064;-63
2022/04/29 06:41:00;;;;;;;1.87;1.20;;;13.70;99.90;;;;;;4255524;27;20046;-59
2022/04/29 06:43:02;;;;;;;4.37;1.23;;;13.70;99.90;;;;;;4257339;27;20397;-56
2022/04/29 06:45:03;;;;;;;1.50;1.10;;;13.80;99.90;;;;;;4255894;27;20035;-59
2022/04/29 06:47:05;;;;;;;3.10;1.40;;;14.00;99.90;;;;;;4256786;27;20099;-68
2022/04/29 06:49:06;;;;;;;3.73;1.40;;;14.20;99.90;;;;;;4258510;27;20088;-62
2022/04/29 06:51:07;;;;;;;2.97;1.90;;;14.20;99.90;;;;;;4260181;27;20099;-57
2022/04/29 06:53:09;;;;;;;4.73;1.63;;;14.30;99.90;;;;;;4259625;27;20043;-58
2022/04/29 06:55:10;;;;;;;3.57;1.57;;;14.20;99.90;;;;;;4259220;27;20166;-54
2022/04/29 06:57:11;;;;;;;1.80;1.23;;;14.10;99.90;;;;;;4260412;27;20031;-58
2022/04/29 06:59:12;;;;;;;6.60;1.60;;;14.20;99.90;;;;;;4259553;27;20424;-57
2022/04/29 07:01:13;;;;;;;2.40;0.77;;;14.50;99.90;;;;;;4260643;27;20433;-55
2022/04/29 07:03:14;;;;;;;2.07;0.97;;;14.70;99.90;;;;;;4258364;27;20087;-54
2022/04/29 07:05:16;;;;;;;1.47;1.00;;;15.00;99.90;;;;;;4259759;27;20027;-56
2022/04/29 07:07:17;;;;;;;2.42;1.50;;;15.00;99.90;;;;;;4259286;27;20201;-57
2022/04/29 07:09:19;;;;;;;3.55;1.75;;;15.00;99.90;;;;;;4260174;27;20026;-52
2022/04/29 07:11:21;;;;;;;5.43;1.55;;;15.10;99.90;;;;;;4259223;27;20079;-51
2022/04/29 07:13:22;;;;;;;4.85;1.27;;;15.20;99.90;;;;;;4260396;27;20437;-57
2022/04/29 07:15:23;;;;;;;5.13;1.42;;;15.10;99.90;;;;;;4258913;27;20031;-54
2022/04/29 07:17:24;;;;;;;2.80;1.35;;;15.20;99.90;;;;;;4259244;27;20091;-56
2022/04/29 07:19:25;;;;;;;4.10;1.42;;;15.40;99.90;;;;;;4258951;27;20084;-54
2022/04/29 07:21:27;;;;;;;4.43;1.58;;;15.60;99.90;;;;;;4259596;27;20027;-54
2022/04/29 07:23:28;;;;;;;1.02;0.90;;;15.60;99.90;;;;;;4258986;27;20103;-55
2022/04/29 07:25:29;;;;;;;3.30;0.88;;;15.80;99.90;;;;;;4259011;27;20087;-71
2022/04/29 07:27:32;;;;;;;1.52;0.80;;;16.30;99.90;;;;;;4260053;27;20083;-57
2022/04/29 07:29:33;;;;;;;2.35;0.80;;;16.70;99.90;;;;;;4257955;27;20043;-56
2022/04/29 07:31:34;;;;;;;1.25;0.90;;;17.00;99.90;;;;;;4259259;27;20174;-52
2022/04/29 07:33:35;;;;;;;1.52;0.55;;;17.30;99.90;;;;;;4258673;27;20560;-66
2022/04/29 07:42:35;;;;;;;0.95;0.77;;;16.70;99.90;;;;;;4259065;27;20112;-57
2022/04/29 07:44:36;;;;;;;0.52;0.50;;;16.80;99.90;;;;;;4259925;27;20046;-57
2022/04/29 07:46:38;;;;;;;0.70;0.55;;;16.60;99.90;;;;;;4258145;27;20103;-62
2022/04/29 07:48:39;;;;;;;2.30;1.20;;;16.80;99.90;;;;;;4260280;27;20035;-52
2022/04/29 07:50:40;;;;;;;2.65;0.80;;;16.80;99.90;;;;;;4239667;27;20187;-56
2022/04/29 07:52:42;;;;;;;0.40;0.40;;;16.70;99.90;;;;;;4259771;27;20030;-53
2022/04/29 07:54:43;;;;;;;0.35;0.35;;;16.80;99.30;;;;;;4257940;27;20080;-55
2022/04/29 07:56:44;;;;;;;1.13;0.30;;;16.90;99.00;;;;;;4258903;27;20038;-57
2022/04/29 07:58:45;;;;;;;0.20;0.10;;;17.30;98.60;;;;;;4257907;27;20083;-56
2022/04/29 08:00:46;;;;;;;2.92;0.32;;;17.50;98.70;;;;;;4257403;27;20379;-57
2022/04/29 08:02:48;;;;;;;1.42;0.30;;;17.70;97.90;;;;;;4258353;27;20031;-57
2022/04/29 08:04:49;;;;;;;1.20;0.32;;;17.80;97.00;;;;;;4258410;27;20054;-52
2022/04/29 08:06:50;;;;;;;0.20;0.17;;;17.70;96.20;;;;;;4258509;27;20083;-55
2022/04/29 08:08:51;;;;;;;0.00;0.00;;;17.70;95.60;;;;;;4258721;27;20046;-59
2022/04/29 08:10:52;;;;;;;0.30;0.10;;;17.70;95.60;;;;;;4259478;27;20161;-56
2022/04/29 08:12:53;;;;;;;0.40;0.20;;;17.90;94.90;;;;;;4257927;27;20042;-58
2022/04/29 08:14:56;;;;;;;0.35;0.30;;;17.80;94.50;;;;;;4258773;27;20756;-55
2022/04/29 08:16:57;;;;;;;0.10;0.10;;;18.00;94.40;;;;;;4257074;27;20066;-59
2022/04/29 08:18:59;;;;;;;0.32;0.20;;;18.00;94.10;;;;;;4259306;27;20550;-57
2022/04/29 08:21:00;;;;;;;0.20;0.20;;;18.30;94.10;;;;;;4257448;27;20483;-58
2022/04/29 08:23:01;;;;;;;0.30;0.20;;;18.20;93.70;;;;;;4259509;27;20083;-54
2022/04/29 08:25:03;;;;;;;0.43;0.32;;;18.00;93.30;;;;;;4256950;27;20545;-55
2022/04/29 08:27:04;;;;;;;4.70;0.30;;;17.80;93.40;;;;;;4259405;27;20027;-64
2022/04/29 08:29:05;;;;;;;0.28;0.22;;;17.70;93.80;;;;;;4257710;27;20094;-58
2022/04/29 08:31:06;;;;;;;1.45;0.30;;;17.90;93.80;;;;;;4258233;27;20107;-55
2022/04/29 08:33:12;;;;;;;0.30;0.30;;;18.20;93.70;;;;;;4257791;27;20040;-62
2022/04/29 08:35:14;;;;;;;0.45;0.35;;;18.30;92.80;;;;;;4258305;27;20019;-63
2022/04/29 08:37:15;;;;;;;1.38;0.40;;;18.00;93.10;;;;;;4258193;27;20478;-62
2022/04/29 08:39:16;;;;;;;2.13;0.80;;;17.70;93.00;;;;;;4257640;27;20822;-57
2022/04/29 08:41:19;;;;;;;0.93;0.20;;;17.60;93.20;;;;;;4258219;27;20079;-54
2022/04/29 08:43:21;;;;;;;0.10;0.10;;;17.70;93.10;;;;;;4257539;27;20048;-58
2022/04/29 08:45:22;;;;;;;0.43;0.20;;;17.70;92.50;;;;;;4258182;27;20183;-64
2022/04/29 08:47:25;;;;;;;0.10;0.10;;;17.70;91.70;;;;;;4256707;27;20079;-54
2022/04/29 08:49:26;;;;;;;3.15;0.60;;;17.30;91.60;;;;;;4258927;27;20075;-51
2022/04/29 08:51:29;;;;;;;0.82;0.30;;;17.30;91.90;;;;;;4256977;27;20452;-63
2022/04/29 08:53:30;;;;;;;0.80;0.30;;;17.50;92.30;;;;;;4258069;27;20774;-57
2022/04/29 09:00:13;;;;;;;0.60;0.28;;;17.70;91.20;;;;;;4257290;27;20038;-67
2022/04/29 09:02:14;;;;;;;0.63;0.45;;;17.40;91.70;;;;;;4257787;27;20039;-55
2022/04/29 09:04:17;;;;;;;0.73;0.30;;;17.20;91.60;;;;;;4256445;27;20114;-58
2022/04/29 09:06:22;;;;;;;1.02;0.50;;;17.10;91.90;;;;;;4257361;27;20083;-60
2022/04/29 09:08:23;;;;;;;2.75;0.40;;;17.30;92.10;;;;;;4257453;27;20023;-56
2022/04/29 09:10:28;;;;;;;1.65;0.30;;;17.70;92.50;;;;;;4258236;27;20030;-57
2022/04/29 09:12:29;;;;;;;2.20;0.52;;;18.00;91.80;;;;;;4256602;27;20388;-57
2022/04/29 09:14:30;;;;;;;0.65;0.22;;;18.00;92.00;;;;;;4258025;27;20023;-55
2022/04/29 09:16:44;;;;;;;2.20;0.45;;;18.10;92.00;;;;;;4256829;27;20038;-57
2022/04/29 09:18:49;;;;;;;0.85;0.20;;;18.20;91.30;;;;;;4257620;27;20083;-55
2022/04/29 09:20:53;;;;;;;0.47;0.30;;;18.00;91.30;;;;;;4256920;27;20059;-56
2022/04/29 09:22:55;;;;;;;1.40;0.50;;;17.80;91.10;;;;;;4256956;27;20084;-56
2022/04/29 09:25:00;;;;;;;0.63;0.40;;;17.60;91.50;;;;;;4256714;27;20051;-55
2022/04/29 09:27:03;;;;;;;2.40;0.40;;;17.40;91.40;;;;;;4257447;27;20086;-55
2022/04/29 09:29:19;;;;;;;0.60;0.45;;;17.20;91.60;;;;;;4256641;27;20088;-58
2022/04/29 09:31:21;;;;;;;0.70;0.50;;;17.10;91.80;;;;;;4257264;27;20076;-54
2022/04/29 09:33:24;;;;;;;1.58;0.45;;;17.30;92.10;;;;;;4256419;27;20090;-57
2022/04/29 09:35:39;;;;;;;1.48;0.30;;;17.20;92.20;;;;;;4256572;27;20079;-54
2022/04/29 09:39:26;;;;;;;0.85;0.55;;;17.50;92.20;;;;;;4256745;27;20095;-56
2022/04/29 09:40:04;;;;;;;0.45;0.45;;;17.80;92.10;;;;;;4256884;27;20075;-55
2022/04/29 09:42:06;;;;;;;0.85;0.50;;;18.20;91.90;;;;;;4256815;27;20034;-57
2022/04/29 09:44:26;;;;;;;0.50;0.40;;;18.10;91.20;;;;;;4256810;27;20034;-58
2022/04/29 09:46:27;;;;;;;1.65;0.57;;;17.90;90.00;;;;;;4256190;27;20030;-55
2022/04/29 09:48:29;;;;;;;0.45;0.35;;;17.70;91.00;;;;;;4257152;27;20091;-54
2022/04/29 09:50:47;;;;;;;0.60;0.30;;;17.60;91.00;;;;;;4256680;27;20820;-63
2022/04/29 09:52:49;;;;;;;0.50;0.40;;;17.50;89.40;;;;;;4256806;27;20030;-61
2022/04/29 09:54:51;;;;;;;1.55;0.65;;;17.40;90.50;;;;;;4257323;27;20023;-51
2022/04/29 09:57:01;;;;;;;1.33;0.70;;;17.60;90.80;;;;;;4255895;27;20038;-56
2022/04/29 09:59:05;;;;;;;2.15;0.70;;;17.90;90.00;;;;;;4257377;27;20039;-59
2022/04/29 10:01:08;;;;;;;2.88;1.73;;;17.80;90.10;;;;;;4255908;27;20030;-58
2022/04/29 10:03:11;;;;;;;1.60;0.70;;;17.80;89.80;;;;;;4257203;27;20080;-56
2022/04/29 10:05:12;;;;;;;0.95;0.60;;;17.60;88.70;;;;;;4255605;27;20095;-57
2022/04/29 10:07:18;;;;;;;1.48;0.60;;;17.50;88.90;;;;;;4257710;27;20103;-58
2022/04/29 10:09:21;;;;;;;0.88;0.20;;;17.50;88.80;;;;;;4256133;27;20550;-58
2022/04/29 10:11:25;;;;;;;1.08;0.43;;;17.40;88.50;;;;;;4258026;27;20027;-49
2022/04/29 10:13:27;;;;;;;1.35;0.30;;;17.40;88.60;;;;;;4256012;27;20042;-56
2022/04/29 10:15:29;;;;;;;0.25;0.10;;;17.70;89.40;;;;;;4257247;27;20038;-56
2022/04/29 10:22:33;;;;;;;0.13;0.10;;;18.10;85.70;;;;;;4256649;27;20050;-56
2022/04/29 10:24:35;;;;;;;2.65;0.40;;;17.90;87.40;;;;;;4260437;27;20087;-56
2022/04/29 10:26:36;;;;;;;2.47;0.30;;;17.80;88.30;;;;;;4259271;27;20436;-56
2022/04/29 10:28:38;;;;;;;6.10;0.47;;;17.70;87.70;;;;;;4260067;27;20042;-54
2022/04/29 10:30:40;;;;;;;0.63;0.20;;;17.70;88.40;;;;;;4259305;27;20098;-56
2022/04/29 10:33:03;;;;;;;0.10;0.10;;;17.60;87.80;;;;;;4260352;27;20494;-57
2022/04/29 10:35:45;;;;;;;0.68;0.30;;;17.60;86.60;;;;;;4258901;27;20097;-57
2022/04/29 10:37:46;;;;;;;0.38;0.20;;;17.60;86.90;;;;;;4261217;27;20381;-57
2022/04/29 10:40:11;;;;;;;0.43;0.30;;;17.40;87.80;;;;;;4259037;27;20046;-54
2022/04/29 10:42:12;;;;;;;0.75;0.30;;;17.60;86.40;;;;;;4260139;27;20114;-62
2022/04/29 10:44:14;;;;;;;0.47;0.30;;;17.70;87.70;;;;;;4240415;27;20071;-50
2022/04/29 10:46:25;;;;;;;1.08;1.05;;;17.80;88.00;;;;;;4259948;27;20039;-55
2022/04/29 10:48:34;;;;;;;2.10;0.30;;;17.70;86.90;;;;;;4258439;27;20095;-57
2022/04/29 10:50:36;;;;;;;1.02;0.30;;;17.60;86.60;;;;;;4259650;27;20083;-69
2022/04/29 10:52:37;;;;;;;0.40;0.20;;;17.50;86.60;;;;;;4258833;27;20038;-62
2022/04/29 10:54:40;;;;;;;2.55;0.20;;;17.30;87.00;;;;;;4260083;27;20447;-57
2022/04/29 10:56:41;;;;;;;0.65;0.25;;;17.40;87.10;;;;;;4258294;27;20428;-57
2022/04/29 10:58:46;;;;;;;0.60;0.40;;;17.50;86.90;;;;;;4260184;27;20068;-56
2022/04/29 11:01:23;;;;;;;0.47;0.32;;;17.40;86.20;;;;;;4258655;27;20047;-58
2022/04/29 11:03:38;;;;;;;1.40;0.50;;;17.40;86.50;;;;;;4260099;27;20031;-61
2022/04/29 11:05:40;;;;;;;0.52;0.52;;;17.30;87.10;;;;;;4258664;27;20054;-56